Time;durP1;ratioP1;P1;durP2;ratioP2;P2;SDS_P1;SDS_P2;PMS_P1;PMS_P2;Temp;Humidity;BMP_temperature;BMP_pressure;BME280_temperature;BME280_humidity;BME280_pressure;Samples;Min_cycle;Max_cycle;Signal;HPM_P1;HPM_P2
2023/08/02 00:02:18;;;;;;;6.35;4.80;;;;;;;24.21;67.58;99281.16;5104799;28;20110;-24
2023/08/02 00:04:44;;;;;;;6.57;4.63;;;;;;;24.42;67.00;99282.00;5104124;27;20142;-24
2023/08/02 00:07:09;;;;;;;7.70;4.85;;;;;;;24.28;67.73;99295.09;5104495;28;20032;-24
2023/08/02 00:09:34;;;;;;;7.03;4.93;;;;;;;24.25;67.65;99293.81;5104325;28;20027;-23
2023/08/02 00:12:03;;;;;;;6.50;5.00;;;;;;;24.42;66.93;99282.00;5104654;28;20030;-24
2023/08/02 00:14:31;;;;;;;6.18;4.55;;;;;;;24.30;67.29;99268.31;5104287;28;20032;-25
2023/08/02 00:16:57;;;;;;;8.23;4.97;;;;;;;24.46;67.04;99285.69;5104552;28;20043;-23
2023/08/02 00:19:22;;;;;;;13.43;4.70;;;;;;;24.33;67.21;99281.25;5104476;28;20491;-23
2023/08/02 00:21:48;;;;;;;6.80;4.68;;;;;;;24.37;66.83;99279.47;5104696;28;20073;-27
2023/08/02 00:24:13;;;;;;;6.18;4.60;;;;;;;24.20;67.93;99285.03;5104426;28;20053;-23
2023/08/02 00:26:41;;;;;;;7.95;5.28;;;;;;;24.26;67.79;99281.00;5104646;28;20453;-28
2023/08/02 00:29:06;;;;;;;;;;;;;;;24.23;67.61;99285.19;5104658;28;20063;-23
2023/08/02 00:31:32;;;;;;;7.18;5.07;;;;;;;24.25;67.42;99279.38;5104457;28;19965;-23
2023/08/02 00:33:58;;;;;;;10.25;5.95;;;;;;;24.26;67.79;99281.00;5104761;28;20177;-23
2023/08/02 00:36:23;;;;;;;7.07;5.20;;;;;;;24.24;67.79;99285.97;5104017;28;20060;-24
2023/08/02 00:38:49;;;;;;;12.77;5.53;;;;;;;24.16;68.07;99278.66;5104710;28;20020;-24
2023/08/02 00:41:14;;;;;;;7.13;5.18;;;;;;;24.35;67.44;99276.28;5104101;28;20219;-27
2023/08/02 00:43:45;;;;;;;6.78;5.53;;;;;;;24.06;68.34;99264.25;5104139;28;20081;-23
2023/08/02 00:46:13;;;;;;;8.35;5.47;;;;;;;24.10;68.56;99286.19;5104006;28;20036;-25
2023/08/02 00:48:39;;;;;;;7.70;5.05;;;;;;;23.96;68.43;99285.63;5104265;28;20077;-24
2023/08/02 00:51:12;;;;;;;8.77;5.53;;;;;;;23.97;69.00;99282.59;5104088;28;20051;-25
2023/08/02 00:53:38;;;;;;;8.32;5.75;;;;;;;23.92;69.24;99285.47;5104250;28;20024;-24
2023/08/02 00:56:06;;;;;;;8.23;5.13;;;;;;;24.00;68.82;99287.34;5103929;28;20068;-23
2023/08/02 00:58:32;;;;;;;7.88;5.07;;;;;;;23.96;68.94;99296.53;5104330;28;20107;-25
2023/08/02 01:01:07;;;;;;;6.25;5.00;;;;;;;24.01;69.02;99299.88;5103747;28;20831;-23
2023/08/02 01:03:37;;;;;;;7.10;5.57;;;;;;;24.02;68.69;99300.66;5104129;28;20679;-23
2023/08/02 01:06:08;;;;;;;7.45;5.68;;;;;;;24.21;67.53;99302.97;5103895;28;20059;-22
2023/08/02 01:08:38;;;;;;;7.93;5.50;;;;;;;23.92;68.86;99307.25;5104089;28;20084;-25
2023/08/02 01:11:10;;;;;;;9.15;5.70;;;;;;;23.97;68.95;99314.47;5103996;28;20442;-23
2023/08/02 01:13:42;;;;;;;9.02;5.85;;;;;;;23.91;69.58;99299.44;5108074;28;20427;-24
2023/08/02 01:16:08;;;;;;;8.73;5.25;;;;;;;23.82;69.96;99302.16;5108028;28;20060;-24
2023/08/02 01:18:33;;;;;;;7.97;5.38;;;;;;;23.67;70.42;99308.94;5107706;28;20077;-24
2023/08/02 01:20:59;;;;;;;7.13;5.22;;;;;;;23.92;69.46;99318.16;5108003;28;20032;-24
2023/08/02 01:23:24;;;;;;;8.10;5.28;;;;;;;23.79;69.71;99319.16;5107759;28;20027;-23
2023/08/02 01:25:52;;;;;;;7.57;4.93;;;;;;;23.89;70.10;99312.59;5107848;28;20412;-23
2023/08/02 01:28:22;;;;;;;7.10;5.20;;;;;;;23.94;69.31;99310.44;5107681;28;20036;-23
2023/08/02 01:30:53;;;;;;;7.72;5.50;;;;;;;23.71;69.78;99301.72;5107914;28;20027;-22
2023/08/02 01:33:22;;;;;;;8.13;5.40;;;;;;;23.74;70.03;99300.25;5107958;28;20864;-22
2023/08/02 01:35:49;;;;;;;6.50;5.60;;;;;;;23.70;70.60;99308.28;5107521;28;20119;-23
2023/08/02 01:38:14;;;;;;;8.15;5.95;;;;;;;23.64;70.72;99313.09;5107471;28;20050;-24
2023/08/02 01:40:40;;;;;;;8.05;5.35;;;;;;;23.66;70.83;99316.28;5107385;28;20416;-25
2023/08/02 01:43:05;;;;;;;9.07;5.50;;;;;;;23.65;70.69;99320.13;5107806;28;20036;-25
2023/08/02 01:45:31;;;;;;;7.05;5.15;;;;;;;23.83;69.97;99322.84;5107508;28;20027;-25
2023/08/02 01:47:56;;;;;;;7.88;5.57;;;;;;;23.81;69.83;99322.38;5107055;28;20027;-24
2023/08/02 01:50:21;;;;;;;6.50;5.40;;;;;;;23.61;70.89;99321.91;5107232;28;20090;-23
2023/08/02 01:52:49;;;;;;;7.45;5.63;;;;;;;23.39;71.97;99324.81;5106973;28;20027;-24
2023/08/02 01:55:17;;;;;;;7.38;5.72;;;;;;;23.45;72.28;99326.25;5106974;27;20039;-24
2023/08/02 01:57:43;;;;;;;8.20;5.90;;;;;;;23.58;72.28;99336.16;5107129;28;20104;-25
2023/08/02 02:00:09;;;;;;;8.23;5.88;;;;;;;23.44;72.39;99335.56;5106968;28;20090;-25
2023/08/02 02:02:34;;;;;;;10.65;5.28;;;;;;;23.42;72.36;99337.81;5106844;28;20028;-26
2023/08/02 02:04:59;;;;;;;7.30;5.68;;;;;;;23.39;72.29;99338.44;5106759;28;20548;-23
2023/08/02 02:07:25;;;;;;;8.50;5.40;;;;;;;23.81;70.68;99335.97;5107299;28;20070;-24
2023/08/02 02:09:50;;;;;;;9.43;5.53;;;;;;;23.58;71.12;99336.16;5106937;28;20522;-24
2023/08/02 02:12:16;;;;;;;6.97;5.38;;;;;;;23.42;71.98;99343.25;5106976;28;20023;-24
2023/08/02 02:14:41;;;;;;;7.05;5.38;;;;;;;23.33;73.04;99345.16;5106728;28;21111;-24
2023/08/02 02:17:07;;;;;;;7.13;5.15;;;;;;;23.81;70.82;99349.59;5106621;28;20494;-25
2023/08/02 02:19:32;;;;;;;7.32;5.57;;;;;;;23.60;70.98;99352.97;5106493;28;20027;-24
2023/08/02 02:21:57;;;;;;;8.18;6.00;;;;;;;23.64;70.43;99353.13;5106564;28;20360;-23
2023/08/02 02:24:25;;;;;;;8.63;5.50;;;;;;;23.62;70.90;99348.00;5105859;28;20068;-28
2023/08/02 02:26:51;;;;;;;8.07;6.15;;;;;;;23.44;71.66;99346.44;5106718;28;20024;-24
2023/08/02 02:29:16;;;;;;;7.75;5.70;;;;;;;23.39;71.68;99349.31;5106729;28;20028;-24
2023/08/02 02:31:41;;;;;;;8.38;6.13;;;;;;;23.58;70.91;99347.06;5106338;28;20027;-25
2023/08/02 02:34:07;;;;;;;7.28;5.82;;;;;;;23.47;71.90;99357.47;5106054;28;20027;-24
2023/08/02 02:36:32;;;;;;;10.25;6.07;;;;;;;23.58;71.56;99351.69;5106400;28;20131;-23
2023/08/02 02:39:00;;;;;;;7.80;5.85;;;;;;;23.37;71.32;99362.44;5106039;28;20027;-23
2023/08/02 02:41:25;;;;;;;9.48;6.40;;;;;;;23.31;71.79;99350.13;5106603;27;20055;-24
2023/08/02 02:43:51;;;;;;;11.85;7.18;;;;;;;23.47;71.02;99356.66;5106346;28;20487;-24
2023/08/02 02:46:16;;;;;;;10.88;6.95;;;;;;;23.37;72.01;99357.00;5106196;28;20022;-23
2023/08/02 02:48:42;;;;;;;12.18;6.80;;;;;;;23.40;71.56;99367.25;5106546;28;20035;-24
2023/08/02 02:51:07;;;;;;;10.57;6.60;;;;;;;23.32;72.14;99365.34;5106107;28;20055;-24
2023/08/02 02:53:32;;;;;;;9.18;6.25;;;;;;;23.17;72.26;99370.13;5106304;28;20485;-24
2023/08/02 02:55:58;;;;;;;10.20;6.72;;;;;;;23.16;72.35;99368.53;5106183;28;20015;-24
2023/08/02 02:58:23;;;;;;;7.78;6.55;;;;;;;22.82;73.60;99352.94;5106066;28;20024;-24
2023/08/02 03:00:49;;;;;;;8.77;6.72;;;;;;;22.84;74.57;99361.59;5105886;28;20558;-24
2023/08/02 03:03:14;;;;;;;8.38;5.93;;;;;;;22.86;73.88;99346.56;5105655;28;20435;-26
2023/08/02 03:05:40;;;;;;;8.43;6.88;;;;;;;22.90;74.22;99362.25;5105759;28;20482;-24
2023/08/02 03:08:05;;;;;;;9.77;7.70;;;;;;;22.86;74.05;99368.34;5105754;28;20027;-23
2023/08/02 03:10:31;;;;;;;8.30;6.53;;;;;;;23.04;73.80;99371.88;5106237;28;20044;-23
2023/08/02 03:12:58;;;;;;;8.48;6.38;;;;;;;22.78;75.38;99380.00;5105620;28;20073;-23
2023/08/02 03:15:24;;;;;;;8.38;6.90;;;;;;;22.69;75.90;99376.44;5105350;28;20127;-24
2023/08/02 03:17:49;;;;;;;8.10;6.78;;;;;;;22.78;75.46;99379.16;5104770;28;20031;-24
2023/08/02 03:20:15;;;;;;;9.02;6.50;;;;;;;22.59;76.95;99390.31;5105523;28;20023;-23
2023/08/02 03:22:40;;;;;;;9.05;6.43;;;;;;;22.40;77.26;99385.16;5105601;27;20035;-23
2023/08/02 03:25:06;;;;;;;12.55;7.05;;;;;;;22.75;75.87;99390.69;5105174;28;20050;-23
2023/08/02 03:27:31;;;;;;;9.50;6.53;;;;;;;23.07;74.24;99381.34;5105515;28;20031;-24
2023/08/02 03:29:57;;;;;;;10.43;7.10;;;;;;;22.66;76.54;99387.97;5105141;28;20019;-26
2023/08/02 03:32:22;;;;;;;8.82;6.82;;;;;;;22.77;75.87;99386.53;5105314;28;20393;-26
2023/08/02 03:34:48;;;;;;;12.32;7.75;;;;;;;22.28;77.88;99388.47;5104908;28;20027;-23
2023/08/02 03:37:13;;;;;;;8.80;7.07;;;;;;;22.34;78.05;99376.34;5105356;28;20105;-25
2023/08/02 03:39:38;;;;;;;8.32;6.32;;;;;;;22.14;79.02;99379.56;5104854;28;20096;-25
2023/08/02 03:42:04;;;;;;;9.75;6.65;;;;;;;22.17;79.02;99365.38;5105261;28;20101;-25
2023/08/02 03:44:29;;;;;;;10.55;6.95;;;;;;;22.94;74.98;99374.88;5105129;28;20420;-23
2023/08/02 03:46:55;;;;;;;12.18;7.22;;;;;;;22.82;76.36;99375.53;5104775;28;20028;-24
2023/08/02 03:49:20;;;;;;;8.00;6.78;;;;;;;22.75;76.30;99385.25;5105350;28;20039;-23
2023/08/02 03:51:47;;;;;;;9.52;7.20;;;;;;;22.36;78.16;99379.53;5104960;28;20112;-24
2023/08/02 03:54:15;;;;;;;17.80;7.55;;;;;;;22.21;78.42;99385.34;5104652;28;20035;-24
2023/08/02 03:56:40;;;;;;;7.65;6.45;;;;;;;22.22;78.58;99387.75;5105063;27;20643;-24
2023/08/02 03:59:05;;;;;;;9.15;6.70;;;;;;;22.21;79.86;99388.06;5104674;28;20110;-22
2023/08/02 04:01:31;;;;;;;8.48;7.05;;;;;;;22.19;80.42;99384.84;5104779;28;20043;-25
2023/08/02 04:03:59;;;;;;;8.93;6.90;;;;;;;22.15;81.35;99386.59;5105177;28;20266;-25
2023/08/02 04:06:26;;;;;;;;;;;;;;;21.94;81.95;99376.28;5104956;28;20040;-23
2023/08/02 04:08:51;;;;;;;9.80;7.82;;;;;;;22.45;79.37;99387.72;5105193;28;19965;-29
2023/08/02 04:11:17;;;;;;;10.40;7.43;;;;;;;22.48;79.11;99383.59;5103306;28;20036;-23
2023/08/02 04:13:42;;;;;;;10.23;7.60;;;;;;;22.53;78.51;99383.44;5105374;28;21363;-24
2023/08/02 04:16:08;;;;;;;10.73;7.35;;;;;;;22.51;78.58;99391.09;5104946;28;20104;-24
2023/08/02 04:18:33;;;;;;;10.25;8.18;;;;;;;22.48;77.57;99397.19;5104272;28;20055;-26
2023/08/02 04:20:59;;;;;;;10.93;8.70;;;;;;;22.45;78.56;99393.97;5104754;28;20038;-25
2023/08/02 04:23:26;;;;;;;9.77;7.85;;;;;;;22.38;79.02;99392.81;5104238;28;20043;-26
2023/08/02 04:25:52;;;;;;;10.82;8.13;;;;;;;22.39;79.59;99397.94;5104805;28;20118;-27
2023/08/02 04:28:17;;;;;;;10.07;7.60;;;;;;;22.55;78.53;99400.22;5103796;28;20102;-24
2023/08/02 04:30:49;;;;;;;11.13;8.35;;;;;;;22.70;77.58;99398.97;5104467;28;20059;-24
2023/08/02 04:33:14;;;;;;;9.50;8.07;;;;;;;22.67;78.10;99400.41;5104682;28;20482;-24
2023/08/02 04:35:39;;;;;;;10.15;8.32;;;;;;;22.84;76.64;99392.31;5104642;28;20070;-24
2023/08/02 04:38:05;;;;;;;10.65;8.63;;;;;;;22.81;77.20;99395.66;5104395;28;20023;-25
2023/08/02 04:40:30;;;;;;;11.40;9.10;;;;;;;22.90;77.00;99381.28;5104416;28;20031;-24
2023/08/02 04:42:56;;;;;;;11.98;9.68;;;;;;;22.94;77.46;99383.03;5104095;28;20484;-26
2023/08/02 04:45:21;;;;;;;10.70;9.15;;;;;;;23.18;75.97;99388.03;5104638;28;20465;-24
2023/08/02 04:47:46;;;;;;;11.25;8.43;;;;;;;23.37;74.54;99389.66;5106946;28;20041;-24
2023/08/02 04:50:12;;;;;;;13.27;9.07;;;;;;;23.11;75.38;99387.75;5108500;28;20030;-24
2023/08/02 04:52:37;;;;;;;11.02;8.30;;;;;;;23.31;75.65;99391.72;5108286;28;20037;-24
2023/08/02 04:55:05;;;;;;;10.65;8.77;;;;;;;23.19;75.73;99384.22;5108355;28;20075;-26
2023/08/02 04:57:31;;;;;;;10.07;8.30;;;;;;;23.49;73.96;99403.41;5108589;28;20032;-26
2023/08/02 04:59:56;;;;;;;10.65;7.85;;;;;;;23.53;74.06;99392.69;5108116;28;20496;-24
2023/08/02 05:02:26;;;;;;;13.00;8.18;;;;;;;23.48;74.55;99396.38;5108196;28;20426;-27
2023/08/02 05:04:52;;;;;;;12.35;8.70;;;;;;;23.73;72.36;99392.00;5108586;28;20463;-24
2023/08/02 05:07:18;;;;;;;12.35;8.65;;;;;;;23.97;72.21;99407.84;5108103;28;20034;-23
2023/08/02 05:09:43;;;;;;;10.45;8.27;;;;;;;23.90;71.28;99396.66;5108080;28;20015;-23
2023/08/02 05:12:09;;;;;;;9.73;7.25;;;;;;;23.90;71.83;99395.84;5107893;28;20019;-24
2023/08/02 05:14:36;;;;;;;12.27;7.95;;;;;;;23.94;71.75;99400.31;5107817;28;20032;-25
2023/08/02 05:17:07;;;;;;;12.95;8.15;;;;;;;24.27;71.34;99397.81;5107840;28;20032;-24
2023/08/02 05:19:32;;;;;;;10.20;7.60;;;;;;;24.05;71.10;99392.63;5107917;28;20031;-24
2023/08/02 05:22:01;;;;;;;10.25;7.25;;;;;;;24.24;70.60;99395.75;5108042;28;20023;-24
2023/08/02 05:24:26;;;;;;;10.80;7.57;;;;;;;24.25;71.44;99404.72;5107912;28;20030;-24
2023/08/02 05:26:51;;;;;;;9.77;7.53;;;;;;;24.28;70.29;99409.53;5107963;28;20027;-25
2023/08/02 05:29:19;;;;;;;8.35;7.00;;;;;;;24.45;70.18;99406.72;5107929;28;20031;-24
2023/08/02 05:31:44;;;;;;;8.95;7.68;;;;;;;24.78;67.78;99418.94;5107614;27;20106;-24
2023/08/02 05:34:10;;;;;;;9.38;7.10;;;;;;;24.96;67.30;99420.41;5107743;28;20028;-24
2023/08/02 05:36:35;;;;;;;9.20;7.00;;;;;;;25.18;66.37;99405.66;5107782;28;20661;-24
2023/08/02 05:39:05;;;;;;;8.45;6.63;;;;;;;25.22;65.92;99406.63;5106975;28;20416;-24
2023/08/02 05:41:31;;;;;;;10.32;6.50;;;;;;;25.15;67.47;99416.44;5107590;28;20062;-24
2023/08/02 05:43:56;;;;;;;9.52;6.90;;;;;;;25.25;66.24;99416.91;5107669;28;20019;-24
2023/08/02 05:46:21;;;;;;;9.73;6.78;;;;;;;25.30;65.94;99423.28;5107722;28;20025;-26
2023/08/02 05:48:49;;;;;;;9.60;6.88;;;;;;;25.46;66.13;99407.91;5107745;28;20032;-24
2023/08/02 05:51:14;;;;;;;8.32;6.90;;;;;;;25.50;66.10;99414.28;5106846;28;20038;-26
2023/08/02 05:53:42;;;;;;;13.60;7.38;;;;;;;25.64;65.50;99400.31;5107006;28;20027;-25
2023/08/02 05:56:07;;;;;;;9.00;6.10;;;;;;;25.52;64.61;99395.63;5107107;28;20040;-24
2023/08/02 05:58:33;;;;;;;17.65;12.73;;;;;;;25.88;63.77;99402.34;5107395;28;20027;-24
2023/08/02 06:00:58;;;;;;;9.55;6.25;;;;;;;26.01;63.83;99406.72;5106270;28;20063;-25
2023/08/02 06:03:24;;;;;;;7.70;5.90;;;;;;;26.08;62.28;99414.38;5106889;28;20028;-24
2023/08/02 06:05:50;;;;;;;8.55;6.05;;;;;;;26.55;62.25;99418.63;5107355;28;20444;-26
2023/08/02 06:08:15;;;;;;;10.43;6.90;;;;;;;26.33;61.17;99417.94;5107299;28;20428;-25
2023/08/02 06:10:40;;;;;;;9.10;6.55;;;;;;;26.36;61.46;99424.66;5106619;28;20039;-33
2023/08/02 06:13:08;;;;;;;7.82;6.55;;;;;;;26.31;62.77;99422.16;5106821;28;20020;-24
2023/08/02 06:15:34;;;;;;;6.95;5.78;;;;;;;26.60;60.96;99432.09;5106879;28;20024;-24
2023/08/02 06:17:59;;;;;;;8.73;6.32;;;;;;;26.70;58.92;99428.91;5107087;28;20031;-24
2023/08/02 06:20:27;;;;;;;8.50;5.80;;;;;;;26.73;60.33;99427.44;5106729;28;20035;-25
2023/08/02 06:22:52;;;;;;;10.63;6.40;;;;;;;26.92;60.09;99430.38;5106837;28;20032;-24
2023/08/02 06:25:18;;;;;;;9.38;6.53;;;;;;;26.95;58.56;99426.16;5106824;28;20039;-25
2023/08/02 06:27:43;;;;;;;12.27;7.05;;;;;;;26.82;60.05;99426.16;5106334;28;20026;-25
2023/08/02 06:30:09;;;;;;;8.23;5.63;;;;;;;26.54;60.67;99425.22;5107027;28;20036;-27
2023/08/02 06:32:34;;;;;;;7.78;6.07;;;;;;;26.57;60.85;99414.44;5106452;28;20023;-25
2023/08/02 06:35:00;;;;;;;9.00;6.20;;;;;;;26.75;61.70;99420.47;5106893;28;20030;-25
2023/08/02 06:37:25;;;;;;;7.55;6.45;;;;;;;26.96;60.19;99420.34;5106611;28;20027;-25
2023/08/02 06:39:50;;;;;;;8.85;6.10;;;;;;;27.13;60.08;99413.78;5106270;28;20536;-26
2023/08/02 06:42:16;;;;;;;9.18;6.40;;;;;;;27.39;58.26;99415.34;5106871;28;20072;-25
2023/08/02 06:44:49;;;;;;;8.15;6.00;;;;;;;27.65;58.98;99412.97;5106367;28;20129;-25
2023/08/02 06:47:15;;;;;;;9.63;6.63;;;;;;;27.74;57.16;99409.28;5106167;28;20024;-26
2023/08/02 06:49:40;;;;;;;9.73;6.45;;;;;;;27.92;57.38;99413.31;5106512;28;20034;-25
2023/08/02 06:52:06;;;;;;;9.45;6.82;;;;;;;28.07;56.69;99421.91;5106261;28;20019;-26
2023/08/02 06:54:31;;;;;;;8.75;6.15;;;;;;;28.06;55.46;99415.63;5106135;28;20123;-25
2023/08/02 06:56:57;;;;;;;8.80;6.80;;;;;;;28.22;53.97;99408.22;5106302;28;20024;-25
2023/08/02 06:59:23;;;;;;;13.40;7.13;;;;;;;27.96;55.80;99410.69;5106046;28;20028;-26
2023/08/02 07:01:48;;;;;;;9.77;7.15;;;;;;;27.83;55.78;99410.72;5105560;28;20093;-27
2023/08/02 07:04:14;;;;;;;9.90;6.80;;;;;;;28.00;56.25;99411.56;5105905;28;20043;-27
2023/08/02 07:06:39;;;;;;;8.15;6.75;;;;;;;28.14;56.28;99402.91;5105863;28;20070;-25
2023/08/02 07:09:05;;;;;;;9.65;7.15;;;;;;;28.38;54.86;99408.22;5105294;28;20107;-26
2023/08/02 07:11:30;;;;;;;7.85;6.70;;;;;;;28.34;55.31;99412.81;5105449;28;20403;-25
2023/08/02 07:13:56;;;;;;;8.98;6.55;;;;;;;28.40;56.07;99407.84;5105777;28;20061;-25
2023/08/02 07:16:21;;;;;;;10.13;7.43;;;;;;;28.09;56.89;99408.66;5106005;28;20389;-25
2023/08/02 07:18:47;;;;;;;9.43;6.65;;;;;;;28.37;55.24;99417.59;5105571;27;20111;-25
2023/08/02 07:21:12;;;;;;;8.38;6.65;;;;;;;28.30;55.98;99417.44;5105663;28;20016;-25
2023/08/02 07:23:37;;;;;;;10.02;7.22;;;;;;;28.14;55.60;99416.63;5105361;28;20035;-26
2023/08/02 07:26:04;;;;;;;8.85;7.25;;;;;;;28.10;54.59;99415.75;5105787;28;20031;-27
2023/08/02 07:28:30;;;;;;;10.27;8.52;;;;;;;28.17;56.01;99404.94;5105282;28;20496;-25
2023/08/02 07:31:11;;;;;;;8.52;7.60;;;;;;;28.29;53.50;99399.38;5105030;28;20030;-26
2023/08/02 07:33:39;;;;;;;8.65;7.07;;;;;;;28.78;52.80;99407.22;5105046;28;20020;-27
2023/08/02 07:36:12;;;;;;;11.93;7.93;;;;;;;28.97;53.67;99406.47;5105086;28;20496;-29
2023/08/02 07:38:37;;;;;;;9.13;7.63;;;;;;;29.28;52.00;99403.97;5104936;28;20564;-25
2023/08/02 07:41:04;;;;;;;7.97;7.18;;;;;;;29.33;52.78;99403.72;5103802;28;20551;-25
2023/08/02 07:43:30;;;;;;;13.90;8.03;;;;;;;29.23;51.86;99403.13;5105246;28;20028;-26
2023/08/02 07:45:57;;;;;;;8.70;7.18;;;;;;;29.53;51.00;99415.50;5104989;28;20015;-26
2023/08/02 07:48:23;;;;;;;9.27;6.88;;;;;;;29.50;51.20;99403.25;5104988;28;20030;-28
2023/08/02 07:50:48;;;;;;;9.43;7.80;;;;;;;29.32;51.60;99399.34;5104608;28;20031;-25
2023/08/02 07:53:24;;;;;;;8.38;6.57;;;;;;;29.62;51.80;99411.34;5105218;28;20027;-23
2023/08/02 07:55:59;;;;;;;8.10;7.00;;;;;;;29.47;51.89;99404.00;5104644;28;20471;-23
2023/08/02 07:58:24;;;;;;;8.40;7.25;;;;;;;29.31;51.97;99401.31;5105151;28;20512;-31
2023/08/02 08:00:50;;;;;;;8.30;7.22;;;;;;;29.56;50.85;99410.06;5104063;28;20050;-24
2023/08/02 08:03:15;;;;;;;8.90;7.53;;;;;;;29.87;50.71;99400.06;5104682;28;20031;-24
2023/08/02 08:05:41;;;;;;;9.00;7.57;;;;;;;30.02;50.54;99403.88;5104547;28;20024;-24
2023/08/02 08:08:07;;;;;;;10.93;8.00;;;;;;;30.29;48.90;99415.72;5104532;28;20027;-28
2023/08/02 08:10:32;;;;;;;11.23;7.40;;;;;;;30.31;48.63;99407.91;5104779;28;20035;-24
2023/08/02 08:12:57;;;;;;;8.25;7.00;;;;;;;30.42;48.22;99414.41;5104735;28;20130;-24
2023/08/02 08:15:23;;;;;;;10.25;8.05;;;;;;;30.47;46.53;99409.75;5104671;28;20114;-25
2023/08/02 08:17:51;;;;;;;11.32;7.90;;;;;;;30.16;48.05;99414.28;5104562;28;20059;-24
2023/08/02 08:20:17;;;;;;;13.82;7.95;;;;;;;30.21;48.54;99419.50;5104234;28;20081;-24
2023/08/02 08:22:42;;;;;;;10.63;8.70;;;;;;;30.29;47.73;99412.19;5103641;28;20451;-24
2023/08/02 08:25:08;;;;;;;8.20;7.40;;;;;;;30.05;49.40;99412.16;5104519;28;20027;-24
2023/08/02 08:27:35;;;;;;;10.52;8.10;;;;;;;30.18;49.30;99403.72;5104612;28;20131;-24
2023/08/02 08:30:01;;;;;;;10.20;8.20;;;;;;;30.52;48.98;99398.41;5104458;28;20069;-26
2023/08/02 08:32:27;;;;;;;9.65;7.55;;;;;;;30.66;47.21;99406.88;5103988;28;20180;-24
2023/08/02 08:34:54;;;;;;;9.67;7.70;;;;;;;31.07;47.14;99401.59;5104516;28;20424;-24
2023/08/02 08:37:19;;;;;;;9.77;7.60;;;;;;;31.43;45.83;99399.28;5104592;28;20374;-24
2023/08/02 08:39:45;;;;;;;9.00;7.88;;;;;;;31.46;46.54;99401.31;5104412;28;20476;-24
2023/08/02 08:42:13;;;;;;;9.52;7.72;;;;;;;31.71;45.71;99392.50;5104563;28;20039;-24
2023/08/02 08:44:39;;;;;;;10.02;7.95;;;;;;;31.58;44.25;99397.50;5103674;28;20397;-26
2023/08/02 08:47:06;;;;;;;11.07;8.38;;;;;;;31.30;45.69;99382.19;5104027;28;20038;-24
2023/08/02 08:49:31;;;;;;;;;;;;;;;31.14;44.72;99395.38;5104620;28;20508;-24
2023/08/02 08:52:04;;;;;;;8.75;7.85;;;;;;;31.28;44.80;99386.50;5104139;28;19908;-24
2023/08/02 08:54:31;;;;;;;11.70;8.68;;;;;;;31.30;44.40;99373.94;5103912;28;20024;-24
2023/08/02 08:56:58;;;;;;;15.80;9.30;;;;;;;31.57;43.77;99391.22;5104094;28;20035;-25
2023/08/02 08:59:25;;;;;;;9.02;8.10;;;;;;;31.58;43.55;99384.50;5104314;28;20032;-24
2023/08/02 09:01:51;;;;;;;9.07;7.45;;;;;;;31.67;44.15;99386.16;5104070;28;20055;-24
2023/08/02 09:04:16;;;;;;;9.15;7.88;;;;;;;31.96;43.98;99377.03;5103870;28;20508;-24
2023/08/02 09:06:42;;;;;;;11.00;8.15;;;;;;;32.08;42.88;99383.44;5104331;28;20037;-25
2023/08/02 09:09:10;;;;;;;13.40;9.07;;;;;;;32.10;41.83;99381.91;5104198;28;20083;-26
2023/08/02 09:11:38;;;;;;;11.23;8.18;;;;;;;32.37;42.12;99382.50;5104386;28;20699;-23
2023/08/02 09:14:11;;;;;;;9.63;8.02;;;;;;;32.53;41.52;99378.66;5103887;28;20028;-24
2023/08/02 09:16:39;;;;;;;9.55;8.30;;;;;;;32.17;43.09;99367.38;5103906;28;20023;-25
2023/08/02 09:19:20;;;;;;;9.57;8.05;;;;;;;32.29;41.03;99350.53;5104337;28;20114;-24
2023/08/02 09:21:46;;;;;;;12.10;7.40;;;;;;;32.71;42.53;99365.78;5103971;28;20066;-24
2023/08/02 09:24:11;;;;;;;10.35;8.00;;;;;;;32.87;41.68;99359.97;5103809;28;20023;-26
2023/08/02 09:26:37;;;;;;;10.40;8.02;;;;;;;33.04;39.58;99372.28;5103742;28;20022;-24
2023/08/02 09:29:06;;;;;;;8.50;7.57;;;;;;;32.94;39.36;99365.53;5104183;28;20420;-27
2023/08/02 09:31:34;;;;;;;19.30;17.27;;;;;;;33.25;38.89;99362.53;5103737;28;20020;-24
2023/08/02 09:34:00;;;;;;;54.20;35.22;;;;;;;33.39;39.53;99359.81;5106629;28;20080;-24
2023/08/02 09:36:28;;;;;;;10.45;8.70;;;;;;;33.79;39.63;99367.00;5107691;28;21759;-24
2023/08/02 09:39:01;;;;;;;8.15;7.35;;;;;;;33.85;38.97;99364.66;5107403;28;20062;-24
2023/08/02 09:41:26;;;;;;;9.07;7.80;;;;;;;33.78;38.36;99364.66;5107458;28;20548;-28
2023/08/02 09:43:52;;;;;;;8.63;7.50;;;;;;;33.96;37.97;99359.13;5107527;28;20598;-26
2023/08/02 09:46:25;;;;;;;9.23;8.23;;;;;;;34.08;36.38;99355.97;5107528;28;20024;-23
2023/08/02 09:48:51;;;;;;;10.82;9.05;;;;;;;33.84;35.18;99368.63;5107908;28;20039;-25
2023/08/02 09:51:17;;;;;;;10.02;9.02;;;;;;;33.83;36.10;99367.00;5106965;28;20032;-26
2023/08/02 09:53:53;;;;;;;11.40;9.80;;;;;;;34.25;35.83;99365.50;5107205;28;20438;-24
2023/08/02 09:56:22;;;;;;;10.10;9.10;;;;;;;34.47;37.67;99346.06;5107081;28;20027;-24
2023/08/02 09:58:48;;;;;;;10.32;9.30;;;;;;;34.17;36.26;99337.03;5106940;28;20020;-26
2023/08/02 10:01:14;;;;;;;12.13;9.07;;;;;;;34.22;35.07;99344.13;5106900;28;20039;-25
2023/08/02 10:03:41;;;;;;;10.25;9.25;;;;;;;34.28;37.20;99345.31;5106938;28;20114;-25
2023/08/02 10:06:07;;;;;;;10.88;9.80;;;;;;;34.54;35.38;99337.75;5107434;28;20102;-25
2023/08/02 10:08:34;;;;;;;9.68;8.68;;;;;;;34.68;34.86;99337.75;5107192;28;20035;-24
2023/08/02 10:11:00;;;;;;;11.27;9.38;;;;;;;34.66;34.97;99339.34;5106985;28;20022;-24
2023/08/02 10:13:30;;;;;;;11.20;9.13;;;;;;;34.66;33.59;99334.59;5106738;28;20492;-29
2023/08/02 10:15:56;;;;;;;11.30;9.10;;;;;;;34.83;33.54;99337.72;5107144;28;20030;-29
2023/08/02 10:18:24;;;;;;;8.57;7.70;;;;;;;34.79;32.29;99340.47;5106699;28;20032;-25
2023/08/02 10:20:54;;;;;;;10.27;9.27;;;;;;;34.50;33.57;99331.44;5106711;28;20293;-24
2023/08/02 10:23:19;;;;;;;10.07;9.05;;;;;;;34.58;33.68;99325.47;5106090;28;20043;-24
2023/08/02 10:25:45;;;;;;;9.48;8.50;;;;;;;34.80;33.13;99323.47;5106887;28;20042;-24
2023/08/02 10:28:12;;;;;;;9.45;8.45;;;;;;;35.03;32.56;99313.88;5106525;28;20088;-24
2023/08/02 10:30:39;;;;;;;10.80;8.67;;;;;;;35.31;34.73;99309.38;5106589;28;20023;-24
2023/08/02 10:33:14;;;;;;;9.57;8.63;;;;;;;34.97;33.85;99309.94;5106648;28;20032;-24
2023/08/02 10:36:03;;;;;;;9.57;8.00;;;;;;;35.15;32.19;99316.22;5106437;28;20745;-24
2023/08/02 10:38:44;;;;;;;9.55;8.52;;;;;;;35.31;32.82;99306.59;5106533;28;20032;-24
2023/08/02 10:41:18;;;;;;;17.55;8.85;;;;;;;35.64;33.02;99285.03;5106118;28;20041;-24
2023/08/02 10:44:00;;;;;;;11.05;8.43;;;;;;;36.04;32.40;99302.91;5106152;28;20028;-25
2023/08/02 10:46:27;;;;;;;9.07;8.02;;;;;;;35.96;32.04;99295.84;5106207;28;20043;-24
2023/08/02 10:49:16;;;;;;;9.07;8.10;;;;;;;36.48;30.79;99297.75;5104459;28;20030;-24
2023/08/02 10:51:45;;;;;;;11.90;8.68;;;;;;;36.73;30.63;99295.50;5101573;28;20543;-25
2023/08/02 10:54:21;;;;;;;8.95;8.05;;;;;;;36.69;30.95;99293.97;5104687;28;20027;-25
2023/08/02 10:56:53;;;;;;;8.90;7.60;;;;;;;37.07;28.60;99289.13;5105580;28;20153;-24
2023/08/02 10:59:24;;;;;;;9.23;8.10;;;;;;;37.36;29.89;99288.72;5106090;28;20081;-24
2023/08/02 11:02:09;;;;;;;9.38;8.35;;;;;;;37.48;30.38;99274.25;5106177;28;20650;-24
2023/08/02 11:04:37;;;;;;;9.18;7.88;;;;;;;37.48;28.37;99279.81;5106096;28;20167;-26
2023/08/02 11:07:13;;;;;;;9.57;8.30;;;;;;;37.26;29.65;99270.22;5105487;28;20028;-27
2023/08/02 11:09:40;;;;;;;9.00;7.85;;;;;;;37.06;28.09;99264.50;5105896;28;20046;-25
2023/08/02 11:12:15;;;;;;;9.53;7.60;;;;;;;37.05;27.82;99269.28;5105645;28;20059;-25
2023/08/02 11:14:43;;;;;;;9.73;7.10;;;;;;;37.04;27.58;99250.25;5105488;28;20030;-24
2023/08/02 11:17:09;;;;;;;8.75;6.70;;;;;;;37.13;26.95;99265.25;5105399;28;20045;-24
2023/08/02 11:19:36;;;;;;;8.50;7.13;;;;;;;37.35;26.07;99264.91;5105531;28;20024;-24
2023/08/02 11:22:01;;;;;;;9.93;6.90;;;;;;;37.08;25.85;99262.09;5106078;28;20028;-24
2023/08/02 11:24:27;;;;;;;8.82;6.97;;;;;;;37.28;26.19;99251.91;5104205;28;20108;-27
2023/08/02 11:26:57;;;;;;;8.82;7.65;;;;;;;37.09;28.68;99258.91;5105967;28;20128;-24
2023/08/02 11:29:23;;;;;;;9.40;8.20;;;;;;;37.14;27.90;99250.13;5105401;28;20584;-25
2023/08/02 11:31:50;;;;;;;9.88;7.28;;;;;;;37.12;27.38;99243.41;5105260;28;20095;-24